createdAt,value
2018-11-27T00:03:56.370Z,87.70
2018-11-27T00:08:59.374Z,87.10
2018-11-27T00:14:03.083Z,87.50
2018-11-27T00:19:06.234Z,87.60
2018-11-27T00:24:09.175Z,87.10
2018-11-27T00:29:12.143Z,87.40
2018-11-27T00:34:15.103Z,88.50
2018-11-27T00:39:18.060Z,88.40
2018-11-27T00:44:21.019Z,88.10
2018-11-27T00:49:23.951Z,88.00
2018-11-27T00:54:26.891Z,87.30
2018-11-27T00:59:29.843Z,89.20
2018-11-27T01:04:32.839Z,88.50
2018-11-27T01:09:35.828Z,87.80
2018-11-27T01:14:38.814Z,87.50
2018-11-27T01:19:41.770Z,88.60
2018-11-27T01:24:44.701Z,88.30
2018-11-27T01:29:47.622Z,88.10
2018-11-27T01:34:50.578Z,88.40
2018-11-27T01:39:53.513Z,88.30
2018-11-27T01:44:56.480Z,88.40
2018-11-27T01:49:59.437Z,88.20
2018-11-27T01:55:02.425Z,88.30
2018-11-27T02:00:23.635Z,88.00
2018-11-27T02:05:27.256Z,86.50
2018-11-27T02:10:30.151Z,86.30
2018-11-27T02:15:33.099Z,86.50
2018-11-27T02:20:36.733Z,87.70
2018-11-27T02:25:39.686Z,87.40
2018-11-27T02:30:42.588Z,86.50
2018-11-27T02:35:45.539Z,86.90
2018-11-27T02:40:48.460Z,86.90
2018-11-27T02:45:51.367Z,87.60
2018-11-27T02:50:54.325Z,87.10
2018-11-27T02:55:57.188Z,87.00
2018-11-27T03:01:00.174Z,87.10
2018-11-27T03:06:03.159Z,87.70
2018-11-27T03:11:06.169Z,86.90
2018-11-27T03:16:09.142Z,87.80
2018-11-27T03:21:12.044Z,88.10
2018-11-27T03:26:14.998Z,87.80
2018-11-27T03:31:17.913Z,88.60
2018-11-27T03:36:20.890Z,88.70
2018-11-27T03:41:23.837Z,88.10
2018-11-27T03:46:26.799Z,87.50
2018-11-27T03:51:29.846Z,88.30
2018-11-27T03:56:32.914Z,88.40
2018-11-27T04:01:35.811Z,87.80
2018-11-27T04:06:38.750Z,87.80
2018-11-27T04:11:41.657Z,86.70
2018-11-27T04:16:44.555Z,87.60
2018-11-27T04:21:47.443Z,88.50
2018-11-27T04:26:50.345Z,88.20
2018-11-27T04:31:53.319Z,86.90
2018-11-27T04:36:56.387Z,87.50
2018-11-27T04:41:59.308Z,88.50
2018-11-27T04:47:02.409Z,86.80
2018-11-27T04:52:06.320Z,87.50
2018-11-27T04:57:09.249Z,87.50
2018-11-27T05:02:12.170Z,88.80
2018-11-27T05:07:15.248Z,88.70
2018-11-27T05:12:18.155Z,88.40
2018-11-27T05:17:21.110Z,88.80
2018-11-27T05:22:24.092Z,89.60
2018-11-27T05:27:27.062Z,89.00
2018-11-27T05:32:29.990Z,88.90
2018-11-27T05:37:32.875Z,89.30
2018-11-27T05:42:35.813Z,87.60
2018-11-27T05:47:39.426Z,87.30
2018-11-27T05:52:42.411Z,87.60
2018-11-27T05:57:47.232Z,88.10
2018-11-27T06:02:53.209Z,88.40
2018-11-27T06:07:56.249Z,88.40
2018-11-27T06:12:59.210Z,87.90
2018-11-27T06:18:03.797Z,87.40
2018-11-27T06:23:06.806Z,88.50
2018-11-27T06:28:09.994Z,87.70
2018-11-27T06:33:12.946Z,88.60
2018-11-27T06:38:15.912Z,88.60
2018-11-27T06:43:18.781Z,88.60
2018-11-27T06:48:21.669Z,89.70
2018-11-27T06:53:24.644Z,89.20
2018-11-27T06:58:27.592Z,89.20
2018-11-27T07:03:30.572Z,89.30
2018-11-27T07:08:33.591Z,88.00
2018-11-27T07:13:36.555Z,89.50
2018-11-27T07:18:39.484Z,86.70
2018-11-27T07:23:42.474Z,86.60
2018-11-27T07:28:45.489Z,86.70
2018-11-27T07:33:48.422Z,86.10
2018-11-27T07:38:51.358Z,86.60
2018-11-27T07:43:54.314Z,84.80
2018-11-27T07:48:57.480Z,86.80
2018-11-27T07:54:00.502Z,87.70
2018-11-27T07:59:03.470Z,85.90
2018-11-27T08:04:06.396Z,85.50
2018-11-27T08:09:09.839Z,85.30
2018-11-27T08:14:12.793Z,85.40
2018-11-27T08:19:15.774Z,83.70
2018-11-27T08:24:18.858Z,84.70
2018-11-27T08:29:21.890Z,83.60
2018-11-27T08:34:24.906Z,85.20
2018-11-27T08:39:27.846Z,84.10
2018-11-27T08:44:30.807Z,83.90
2018-11-27T08:49:33.806Z,84.00
2018-11-27T08:54:36.853Z,81.20
2018-11-27T08:59:39.799Z,81.50
2018-11-27T09:04:42.781Z,82.90
2018-11-27T09:09:45.770Z,81.30
2018-11-27T09:14:48.727Z,80.50
2018-11-27T09:19:51.706Z,80.00
2018-11-27T09:24:54.669Z,79.10
2018-11-27T09:29:57.644Z,81.90
2018-11-27T09:35:01.265Z,82.10
2018-11-27T09:40:07.597Z,79.90
2018-11-27T09:45:13.661Z,79.60
2018-11-27T09:50:16.877Z,76.00
2018-11-27T09:55:25.152Z,78.90
2018-11-27T10:00:30.222Z,76.90
2018-11-27T10:05:33.545Z,77.60
2018-11-27T10:10:36.469Z,78.70
2018-11-27T10:15:39.458Z,75.80
2018-11-27T10:20:42.932Z,76.60
2018-11-27T10:25:45.919Z,78.20
2018-11-27T10:30:48.917Z,76.70
2018-11-27T10:35:52.819Z,77.20
2018-11-27T10:40:55.781Z,76.30
2018-11-27T10:45:58.780Z,78.50
2018-11-27T10:51:01.740Z,78.90
2018-11-27T10:56:06.072Z,79.30
2018-11-27T11:01:13.632Z,79.70
2018-11-27T11:06:16.738Z,78.20
2018-11-27T11:11:19.734Z,81.00
2018-11-27T11:16:22.695Z,80.60
2018-11-27T11:21:25.829Z,80.00
2018-11-27T11:26:28.749Z,82.40
2018-11-27T11:31:31.700Z,80.90
2018-11-27T11:36:34.739Z,78.50
2018-11-27T11:41:37.979Z,78.80
2018-11-27T11:46:40.956Z,78.80
2018-11-27T11:51:43.957Z,78.70
2018-11-27T11:56:46.994Z,78.00
2018-11-27T12:01:49.989Z,77.30
2018-11-27T12:06:52.985Z,77.80
2018-11-27T12:11:55.981Z,78.20
2018-11-27T12:16:58.912Z,79.90
2018-11-27T12:22:01.926Z,79.70
2018-11-27T12:27:05.099Z,78.70
2018-11-27T12:32:08.216Z,76.80
2018-11-27T12:37:11.207Z,78.60
2018-11-27T12:42:14.283Z,78.80
2018-11-27T12:47:18.041Z,79.50
2018-11-27T12:52:21.082Z,79.10
2018-11-27T12:57:24.001Z,81.00
2018-11-27T13:02:26.966Z,78.70
2018-11-27T13:07:29.926Z,79.10
2018-11-27T13:12:32.897Z,79.20
2018-11-27T13:17:35.874Z,79.90
2018-11-27T13:22:39.120Z,81.50
2018-11-27T13:27:42.205Z,80.30
2018-11-27T13:32:47.650Z,80.80
2018-11-27T13:37:50.625Z,82.30
2018-11-27T13:42:53.667Z,80.60
2018-11-27T13:47:56.758Z,82.80
2018-11-27T13:52:59.842Z,82.50
2018-11-27T13:58:02.752Z,84.30
2018-11-27T14:03:10.786Z,84.10
2018-11-27T14:08:10.416Z,83.70
2018-11-27T14:13:13.402Z,81.70
2018-11-27T14:18:16.405Z,84.30
2018-11-27T14:23:19.390Z,84.00
2018-11-27T14:28:22.398Z,83.30
2018-11-27T14:33:25.407Z,85.10
2018-11-27T14:38:28.338Z,85.40
2018-11-27T14:43:31.294Z,85.50
2018-11-27T14:48:34.296Z,88.30
2018-11-27T14:53:38.195Z,88.10
2018-11-27T14:58:41.155Z,87.00
2018-11-27T15:03:44.153Z,87.50
2018-11-27T15:08:47.126Z,84.90
2018-11-27T15:13:50.128Z,86.90
2018-11-27T15:18:53.105Z,88.00
2018-11-27T15:23:56.081Z,89.40
2018-11-27T15:28:59.183Z,92.10
2018-11-27T15:34:02.226Z,94.60
2018-11-27T15:39:09.029Z,96.30
2018-11-27T15:44:12.002Z,97.40
2018-11-27T15:49:14.943Z,98.00
2018-11-27T15:54:18.025Z,98.30
2018-11-27T15:59:20.974Z,98.80
2018-11-27T16:04:23.992Z,99.90
2018-11-27T16:09:26.991Z,99.90
2018-11-27T16:14:30.016Z,99.90
2018-11-27T16:19:33.003Z,99.90
2018-11-27T16:24:35.969Z,99.90
2018-11-27T16:29:38.873Z,99.90
2018-11-27T16:34:41.891Z,99.90
2018-11-27T16:39:44.885Z,99.90
2018-11-27T16:44:48.020Z,99.90
2018-11-27T16:49:51.016Z,99.90
2018-11-27T16:54:54.073Z,99.90
2018-11-27T16:59:57.130Z,99.90
2018-11-27T17:05:00.078Z,99.90
2018-11-27T17:10:04.071Z,99.90
2018-11-27T17:15:12.316Z,99.90
2018-11-27T17:20:32.024Z,99.90
2018-11-27T17:25:35.089Z,99.00
2018-11-27T17:30:42.078Z,99.70
2018-11-27T17:35:45.216Z,99.20
2018-11-27T17:40:48.317Z,99.90
2018-11-27T17:45:51.327Z,99.80
2018-11-27T17:50:54.280Z,99.90
2018-11-27T17:55:57.247Z,99.90
2018-11-27T18:01:00.248Z,98.50
2018-11-27T18:06:03.219Z,98.60
2018-11-27T18:11:06.279Z,98.50
2018-11-27T18:16:09.386Z,98.40
2018-11-27T18:21:12.438Z,98.00
2018-11-27T18:26:15.522Z,97.90
2018-11-27T18:31:18.567Z,97.50
2018-11-27T18:36:25.820Z,98.20
2018-11-27T18:41:24.698Z,97.80
2018-11-27T18:46:27.729Z,97.30
2018-11-27T18:51:30.835Z,97.50
2018-11-27T18:56:33.861Z,96.90
2018-11-27T19:01:36.962Z,98.40
2018-11-27T19:06:39.999Z,98.20
2018-11-27T19:11:43.037Z,99.10
2018-11-27T19:16:46.048Z,98.50
2018-11-27T19:21:49.157Z,97.60
2018-11-27T19:26:52.223Z,97.70
2018-11-27T19:31:55.263Z,98.60
2018-11-27T19:36:58.286Z,97.60
2018-11-27T19:42:01.301Z,97.10
2018-11-27T19:47:04.841Z,97.10
2018-11-27T19:52:07.911Z,97.80
2018-11-27T19:57:10.974Z,96.70
2018-11-27T20:02:14.016Z,96.50
2018-11-27T20:07:17.196Z,97.20
2018-11-27T20:12:20.235Z,97.20
2018-11-27T20:17:23.391Z,97.50
2018-11-27T20:22:26.417Z,97.70
2018-11-27T20:27:29.517Z,98.40
2018-11-27T20:32:34.031Z,98.30
2018-11-27T20:37:35.888Z,98.10
2018-11-27T20:42:39.021Z,97.80
2018-11-27T20:47:42.998Z,97.60
2018-11-27T20:52:46.149Z,97.50
2018-11-27T20:57:54.422Z,97.30
2018-11-27T21:02:59.515Z,98.90
2018-11-27T21:08:02.614Z,98.50
2018-11-27T21:13:07.555Z,98.20
2018-11-27T21:18:12.016Z,98.50
2018-11-27T21:23:15.507Z,98.40
2018-11-27T21:28:19.440Z,97.90
2018-11-27T21:33:22.611Z,98.60
2018-11-27T21:38:25.814Z,98.70
2018-11-27T21:43:28.977Z,99.30
2018-11-27T21:48:32.017Z,98.60
2018-11-27T21:53:35.197Z,98.30
2018-11-27T21:58:38.957Z,98.30
2018-11-27T22:03:42.043Z,98.00
2018-11-27T22:08:48.947Z,98.90
2018-11-27T22:13:52.041Z,98.60
2018-11-27T22:18:55.125Z,98.60
2018-11-27T22:23:58.185Z,99.20
2018-11-27T22:29:01.172Z,99.70
2018-11-27T22:34:04.246Z,98.90
2018-11-27T22:39:09.013Z,98.80
2018-11-27T22:44:12.031Z,99.40
2018-11-27T22:49:15.058Z,99.70
2018-11-27T22:54:18.062Z,98.80
2018-11-27T22:59:21.207Z,99.10
2018-11-27T23:04:24.250Z,98.60
2018-11-27T23:09:27.290Z,98.60
2018-11-27T23:14:30.354Z,98.40
2018-11-27T23:19:33.362Z,98.90
2018-11-27T23:24:36.352Z,98.90
2018-11-27T23:29:39.876Z,98.40
2018-11-27T23:34:42.888Z,98.50
2018-11-27T23:39:45.940Z,98.90
2018-11-27T23:44:49.033Z,99.00
2018-11-27T23:49:52.024Z,99.40
2018-11-27T23:54:55.033Z,99.50
2018-11-27T23:59:57.985Z,99.00
